createdAt,value
2022-12-12T00:02:07.618Z,-3.50
2022-12-12T00:04:35.671Z,-3.60
2022-12-12T00:07:03.698Z,-3.50
2022-12-12T00:09:33.112Z,-3.40
2022-12-12T00:12:01.222Z,-3.40
2022-12-12T00:14:29.352Z,-3.40
2022-12-12T00:16:57.354Z,-3.30
2022-12-12T00:19:25.531Z,-3.30
2022-12-12T00:21:53.581Z,-3.40
2022-12-12T00:24:21.736Z,-3.30
2022-12-12T00:26:51.180Z,-3.40
2022-12-12T00:29:19.248Z,-3.20
2022-12-12T00:31:47.358Z,-3.40
2022-12-12T00:34:15.445Z,-3.30
2022-12-12T00:36:43.484Z,-2.80
2022-12-12T00:39:18.054Z,-3.30
2022-12-12T00:41:46.668Z,-3.20
2022-12-12T00:44:16.087Z,-3.30
2022-12-12T00:46:44.318Z,-3.40
2022-12-12T00:49:13.139Z,-3.40
2022-12-12T00:51:41.314Z,-3.40
2022-12-12T00:54:09.368Z,-3.20
2022-12-12T00:56:37.371Z,-3.30
2022-12-12T00:59:05.818Z,-3.20
2022-12-12T01:01:36.486Z,-3.10
2022-12-12T01:04:05.805Z,-3.10
2022-12-12T01:06:34.261Z,-3.30
2022-12-12T01:09:02.301Z,-3.20
2022-12-12T01:11:30.333Z,-3.30
2022-12-12T01:13:58.342Z,-3.30
2022-12-12T01:16:26.912Z,-3.30
2022-12-12T01:18:56.449Z,-3.10
2022-12-12T01:21:25.269Z,-3.20
2022-12-12T01:23:53.416Z,-3.30
2022-12-12T01:26:24.902Z,-3.20
2022-12-12T01:28:53.870Z,-3.30
2022-12-12T01:31:22.047Z,-3.30
2022-12-12T01:33:50.118Z,-3.30
2022-12-12T01:36:22.194Z,-3.30
2022-12-12T01:38:52.356Z,-3.10
2022-12-12T01:41:21.810Z,-3.10
2022-12-12T01:43:50.305Z,-3.10
2022-12-12T01:46:43.646Z,-3.20
2022-12-12T01:49:20.162Z,-3.20
2022-12-12T01:51:51.071Z,-3.00
2022-12-12T01:54:23.261Z,-3.10
2022-12-12T01:56:52.405Z,-3.20
2022-12-12T01:59:24.051Z,-3.00
2022-12-12T02:01:53.829Z,-3.10
2022-12-12T02:04:23.165Z,-3.10
2022-12-12T02:06:53.270Z,-3.00
2022-12-12T02:09:22.211Z,-2.90
2022-12-12T02:11:52.453Z,-2.00
2022-12-12T02:14:25.377Z,-3.00
2022-12-12T02:17:10.311Z,-2.90
2022-12-12T02:20:13.301Z,-2.90
2022-12-12T02:23:05.896Z,-3.00
2022-12-12T02:25:59.234Z,-3.00
2022-12-12T02:28:59.230Z,-2.90
2022-12-12T02:31:34.393Z,-3.00
2022-12-12T02:34:08.510Z,-3.00
2022-12-12T02:36:44.334Z,-3.00
2022-12-12T02:39:20.493Z,-3.00
2022-12-12T02:41:55.040Z,-2.90
2022-12-12T02:44:28.797Z,-2.90
2022-12-12T02:47:05.202Z,-2.90
2022-12-12T02:49:39.808Z,-3.00
2022-12-12T02:52:10.168Z,-2.90
2022-12-12T02:54:38.270Z,-2.90
2022-12-12T02:57:16.589Z,-2.90
2022-12-12T02:59:48.824Z,-2.80
2022-12-12T03:02:45.847Z,-2.80
2022-12-12T03:05:52.828Z,-2.70
2022-12-12T03:08:33.952Z,-2.70
2022-12-12T03:11:06.943Z,-2.60
2022-12-12T03:13:43.101Z,-2.60
2022-12-12T03:16:24.226Z,-2.70
2022-12-12T03:19:01.624Z,-2.60
2022-12-12T03:21:38.672Z,-2.50
2022-12-12T03:24:12.303Z,-2.60
2022-12-12T03:26:48.496Z,-2.60
2022-12-12T03:29:21.079Z,-2.60
2022-12-12T03:31:53.325Z,-2.60
2022-12-12T03:34:27.104Z,-2.50
2022-12-12T03:37:01.533Z,-2.60
2022-12-12T03:39:34.327Z,-2.50
2022-12-12T03:42:08.304Z,-2.40
2022-12-12T03:44:41.778Z,-2.60
2022-12-12T03:47:14.914Z,-2.40
2022-12-12T03:49:48.897Z,-2.40
2022-12-12T03:52:24.060Z,-2.50
2022-12-12T03:54:57.934Z,-2.40
2022-12-12T03:57:31.949Z,-2.30
2022-12-12T04:00:03.924Z,-2.40
2022-12-12T04:02:36.283Z,-2.40
2022-12-12T04:05:14.284Z,-2.30
2022-12-12T04:07:46.136Z,-2.20
2022-12-12T04:10:31.496Z,-2.10
2022-12-12T04:13:11.821Z,-2.10
2022-12-12T04:15:53.186Z,-2.10
2022-12-12T04:18:29.993Z,-2.10
2022-12-12T04:21:25.572Z,-2.00
2022-12-12T04:24:01.399Z,-2.00
2022-12-12T04:26:41.704Z,-2.10
2022-12-12T04:29:31.756Z,-1.90
2022-12-12T04:32:06.992Z,-2.00
2022-12-12T04:34:41.558Z,-1.90
2022-12-12T04:37:15.330Z,-2.00
2022-12-12T04:39:44.870Z,-2.00
2022-12-12T04:42:16.289Z,-1.90
2022-12-12T04:44:45.779Z,-1.80
2022-12-12T04:47:15.600Z,-2.00
2022-12-12T04:49:46.924Z,-1.90
2022-12-12T04:52:18.329Z,-2.00
2022-12-12T04:54:52.055Z,-2.00
2022-12-12T04:57:26.318Z,-2.00
2022-12-12T04:59:54.580Z,-2.00
2022-12-12T05:02:29.233Z,-1.90
2022-12-12T05:05:01.075Z,-1.90
2022-12-12T05:07:40.066Z,-1.90
2022-12-12T05:10:12.408Z,-2.10
2022-12-12T05:12:42.238Z,-1.80
2022-12-12T05:15:11.639Z,-1.90
2022-12-12T05:17:46.937Z,-1.90
2022-12-12T05:20:15.277Z,-1.80
2022-12-12T05:22:44.675Z,-1.70
2022-12-12T05:25:14.325Z,-1.80
2022-12-12T05:27:42.703Z,-1.80
2022-12-12T05:30:11.869Z,-1.80
2022-12-12T05:32:39.901Z,-1.70
2022-12-12T05:35:09.594Z,-1.70
2022-12-12T05:37:37.855Z,-1.80
2022-12-12T05:40:09.644Z,-1.80
2022-12-12T05:42:37.768Z,-1.60
2022-12-12T05:45:07.422Z,-1.60
2022-12-12T05:47:35.889Z,-1.80
2022-12-12T05:50:04.628Z,-1.70
2022-12-12T05:52:32.688Z,-1.60
2022-12-12T05:55:00.777Z,-1.60
2022-12-12T05:57:30.249Z,-1.60
2022-12-12T05:59:58.291Z,-1.60
2022-12-12T06:02:26.490Z,-1.50
2022-12-12T06:04:54.597Z,-1.50
2022-12-12T06:07:22.651Z,-1.50
2022-12-12T06:09:50.747Z,-1.60
2022-12-12T06:12:18.771Z,-1.50
2022-12-12T06:14:48.223Z,-1.40
2022-12-12T06:17:16.278Z,-1.40
2022-12-12T06:19:44.544Z,-0.80
2022-12-12T06:22:12.851Z,-1.50
2022-12-12T06:24:40.894Z,-1.50
2022-12-12T06:27:08.927Z,-1.50
2022-12-12T06:29:37.014Z,-1.30
2022-12-12T06:32:07.277Z,-1.40
2022-12-12T06:34:35.328Z,-1.30
2022-12-12T06:37:03.467Z,-1.30
2022-12-12T06:39:31.480Z,-1.30
2022-12-12T06:41:59.494Z,-1.20
2022-12-12T06:44:27.486Z,-1.20
2022-12-12T06:46:55.459Z,-1.30
2022-12-12T06:49:24.905Z,-2.10
2022-12-12T06:51:52.885Z,-1.20
2022-12-12T06:54:20.883Z,-1.00
2022-12-12T06:56:48.961Z,-1.20
2022-12-12T06:59:17.708Z,-1.20
2022-12-12T07:01:46.984Z,-1.10
2022-12-12T07:04:16.199Z,-1.10
2022-12-12T07:06:45.842Z,-1.20
2022-12-12T07:09:13.880Z,-1.20
2022-12-12T07:11:42.615Z,-1.10
2022-12-12T07:14:11.822Z,-1.00
2022-12-12T07:16:40.615Z,-1.00
2022-12-12T07:19:08.697Z,-1.00
2022-12-12T07:21:36.764Z,-1.00
2022-12-12T07:24:06.691Z,-0.90
2022-12-12T07:26:34.903Z,-0.90
2022-12-12T07:29:05.331Z,-0.90
2022-12-12T07:31:33.464Z,-0.90
2022-12-12T07:34:01.598Z,-0.80
2022-12-12T07:36:29.682Z,-0.80
2022-12-12T07:38:57.734Z,-0.80
2022-12-12T07:41:27.221Z,-0.80
2022-12-12T07:43:55.259Z,-0.70
2022-12-12T07:46:25.502Z,-0.70
2022-12-12T07:48:54.574Z,-0.80
2022-12-12T07:51:23.362Z,-0.60
2022-12-12T07:53:51.605Z,-0.70
2022-12-12T07:56:20.320Z,-0.70
2022-12-12T07:58:49.989Z,-0.60
2022-12-12T08:01:24.696Z,-0.20
2022-12-12T08:03:53.549Z,0.20
2022-12-12T08:06:23.092Z,-0.50
2022-12-12T08:08:52.380Z,-0.40
2022-12-12T08:11:23.281Z,-0.40
2022-12-12T08:13:53.333Z,-0.30
2022-12-12T08:16:23.363Z,-0.20
2022-12-12T08:18:54.139Z,-0.20
2022-12-12T08:21:25.675Z,-0.20
2022-12-12T08:23:57.192Z,-0.20
2022-12-12T08:26:25.982Z,-0.20
2022-12-12T08:28:56.256Z,-0.20
2022-12-12T08:31:24.919Z,-0.10
2022-12-12T08:33:53.147Z,-0.10
2022-12-12T08:36:23.234Z,0.10
2022-12-12T08:38:51.936Z,-0.10
2022-12-12T08:41:20.779Z,-0.10
2022-12-12T08:43:49.121Z,0.00
2022-12-12T08:46:20.557Z,0.00
2022-12-12T08:48:49.354Z,-0.10
2022-12-12T08:51:18.470Z,-0.10
2022-12-12T08:53:47.043Z,0.00
2022-12-12T08:56:15.383Z,-0.10
2022-12-12T08:58:43.450Z,0.00
2022-12-12T09:01:12.290Z,0.00
2022-12-12T09:03:41.868Z,0.20
2022-12-12T09:06:10.935Z,0.00
2022-12-12T09:08:39.233Z,0.00
2022-12-12T09:11:07.787Z,0.10
2022-12-12T09:13:36.543Z,0.30
2022-12-12T09:16:06.693Z,0.00
2022-12-12T09:18:35.750Z,0.20
2022-12-12T09:21:06.131Z,0.10
2022-12-12T09:23:34.223Z,0.20
2022-12-12T09:26:06.060Z,0.20
2022-12-12T09:28:34.534Z,0.20
2022-12-12T09:31:07.308Z,0.40
2022-12-12T09:33:35.786Z,0.20
2022-12-12T09:36:07.440Z,0.20
2022-12-12T09:38:35.943Z,0.50
2022-12-12T09:41:11.966Z,0.40
2022-12-12T09:43:47.459Z,0.30
2022-12-12T09:46:22.932Z,0.20
2022-12-12T09:48:50.984Z,0.30
2022-12-12T09:51:20.691Z,0.20
2022-12-12T09:53:51.523Z,0.20
2022-12-12T09:56:25.712Z,0.20
2022-12-12T09:59:03.458Z,0.20
2022-12-12T10:01:39.233Z,0.30
2022-12-12T10:04:15.503Z,0.30
2022-12-12T10:06:50.144Z,0.40
2022-12-12T10:09:37.474Z,0.40
2022-12-12T10:12:08.731Z,0.40
2022-12-12T10:14:41.901Z,0.30
2022-12-12T10:17:18.014Z,0.40
2022-12-12T10:19:50.481Z,0.40
2022-12-12T10:22:29.748Z,0.40
2022-12-12T10:25:03.333Z,0.50
2022-12-12T10:27:31.679Z,0.40
2022-12-12T10:30:08.162Z,0.70
2022-12-12T10:32:46.893Z,0.40
2022-12-12T10:35:26.414Z,0.50
2022-12-12T10:38:12.073Z,0.50
2022-12-12T10:40:55.049Z,0.60
2022-12-12T10:43:28.261Z,0.60
2022-12-12T10:46:19.375Z,0.60
2022-12-12T10:48:49.980Z,0.70
2022-12-12T10:51:21.878Z,0.50
2022-12-12T10:53:51.462Z,0.70
2022-12-12T10:56:27.272Z,0.70
2022-12-12T10:58:57.416Z,0.60
2022-12-12T11:01:52.786Z,0.50
2022-12-12T11:04:17.708Z,0.50
2022-12-12T11:06:49.321Z,0.50
2022-12-12T11:09:20.710Z,0.60
2022-12-12T11:12:00.262Z,0.50
2022-12-12T11:14:33.089Z,0.50
2022-12-12T11:17:01.199Z,0.50
2022-12-12T11:19:38.252Z,0.40
2022-12-12T11:22:06.577Z,0.50
2022-12-12T11:24:37.616Z,0.50
2022-12-12T11:27:08.232Z,0.40
2022-12-12T11:29:44.553Z,0.40
2022-12-12T11:32:15.616Z,0.40
2022-12-12T11:34:48.485Z,0.60
2022-12-12T11:37:18.341Z,0.50
2022-12-12T11:39:51.851Z,0.60
2022-12-12T11:42:25.676Z,0.50
2022-12-12T11:45:03.107Z,0.50
2022-12-12T11:47:38.429Z,0.60
2022-12-12T11:50:19.172Z,0.50
2022-12-12T11:52:48.393Z,0.30
2022-12-12T11:55:20.871Z,0.60
2022-12-12T11:58:04.339Z,0.50
2022-12-12T12:00:41.086Z,0.50
2022-12-12T12:03:27.299Z,0.60
2022-12-12T12:06:16.495Z,1.70
2022-12-12T12:08:59.031Z,0.60
2022-12-12T12:11:38.345Z,0.50
2022-12-12T12:14:22.278Z,0.60
2022-12-12T12:17:01.584Z,0.50
2022-12-12T12:19:37.761Z,0.60
2022-12-12T12:22:15.637Z,0.70
2022-12-12T12:25:08.458Z,0.90
2022-12-12T12:27:44.878Z,0.60
2022-12-12T12:30:22.349Z,0.60
2022-12-12T12:33:17.461Z,0.60
2022-12-12T12:36:00.192Z,0.60
2022-12-12T12:38:47.457Z,0.50
2022-12-12T12:41:35.466Z,0.50
2022-12-12T12:44:22.157Z,0.50
2022-12-12T12:46:58.117Z,0.30
2022-12-12T12:49:31.685Z,0.50
2022-12-12T12:52:03.071Z,0.60
2022-12-12T12:54:34.173Z,0.40
2022-12-12T12:57:08.232Z,0.50
2022-12-12T12:59:41.513Z,0.60
2022-12-12T13:02:26.533Z,0.60
2022-12-12T13:05:03.615Z,0.50
2022-12-12T13:07:41.297Z,0.60
2022-12-12T13:10:17.967Z,0.30
2022-12-12T13:12:51.173Z,0.50
2022-12-12T13:15:25.232Z,0.50
2022-12-12T13:18:01.333Z,0.30
2022-12-12T13:20:32.283Z,0.50
2022-12-12T13:23:21.208Z,0.50
2022-12-12T13:25:55.871Z,0.50
2022-12-12T13:28:27.846Z,0.40
2022-12-12T13:31:24.429Z,0.40
2022-12-12T13:33:54.772Z,0.70
2022-12-12T13:36:29.687Z,1.00
2022-12-12T13:39:01.432Z,0.60
2022-12-12T13:41:56.334Z,0.50
2022-12-12T13:44:37.717Z,0.60
2022-12-12T13:47:14.151Z,0.70
2022-12-12T13:49:51.132Z,0.60
2022-12-12T13:52:26.580Z,0.60
2022-12-12T13:54:56.877Z,0.70
2022-12-12T13:57:34.360Z,0.70
2022-12-12T14:00:19.871Z,0.80
2022-12-12T14:03:10.007Z,0.60
2022-12-12T14:05:41.685Z,0.70
2022-12-12T14:08:26.407Z,1.20
2022-12-12T14:11:01.924Z,0.80
2022-12-12T14:13:40.226Z,0.80
2022-12-12T14:16:19.452Z,0.80
2022-12-12T14:19:06.793Z,0.70
2022-12-12T14:21:41.553Z,0.80
2022-12-12T14:24:55.657Z,1.40
2022-12-12T14:27:56.424Z,0.80
2022-12-12T14:30:27.260Z,0.80
2022-12-12T14:33:06.289Z,0.70
2022-12-12T14:35:43.517Z,0.70
2022-12-12T14:38:28.039Z,0.80
2022-12-12T14:41:01.150Z,0.80
2022-12-12T14:43:31.740Z,0.90
2022-12-12T14:46:01.399Z,0.70
2022-12-12T14:48:30.722Z,0.80
2022-12-12T14:51:07.566Z,1.10
2022-12-12T14:53:47.656Z,0.80
2022-12-12T14:56:17.443Z,1.10
2022-12-12T14:58:50.636Z,0.90
2022-12-12T15:01:30.727Z,0.90
2022-12-12T15:03:59.931Z,0.70
2022-12-12T15:06:33.131Z,0.80
2022-12-12T15:09:17.402Z,0.70
2022-12-12T15:11:46.645Z,0.90
2022-12-12T15:14:21.162Z,0.90
2022-12-12T15:16:53.448Z,0.90
2022-12-12T15:19:26.610Z,0.80
2022-12-12T15:21:56.344Z,0.70
2022-12-12T15:24:27.386Z,0.70
2022-12-12T15:26:57.523Z,0.80
2022-12-12T15:29:28.766Z,1.10
2022-12-12T15:32:01.065Z,0.80
2022-12-12T15:34:37.942Z,0.80
2022-12-12T15:37:25.921Z,0.80
2022-12-12T15:40:19.451Z,0.70
2022-12-12T15:42:51.987Z,0.80
2022-12-12T15:45:33.318Z,0.90
2022-12-12T15:48:02.154Z,0.80
2022-12-12T15:50:35.440Z,0.90
2022-12-12T15:53:08.177Z,0.80
2022-12-12T15:55:37.076Z,0.90
2022-12-12T15:58:05.375Z,0.80
2022-12-12T16:00:37.265Z,1.10
2022-12-12T16:03:22.051Z,0.80
2022-12-12T16:06:04.083Z,0.90
2022-12-12T16:08:40.260Z,0.80
2022-12-12T16:11:32.664Z,0.90
2022-12-12T16:14:01.536Z,1.30
2022-12-12T16:16:42.477Z,1.00
2022-12-12T16:19:27.449Z,1.00
2022-12-12T16:21:56.183Z,0.90
2022-12-12T16:24:27.000Z,0.80
2022-12-12T16:26:58.497Z,1.10
2022-12-12T16:29:26.515Z,0.70
2022-12-12T16:31:56.070Z,0.80
2022-12-12T16:34:24.532Z,0.80
2022-12-12T16:36:52.555Z,0.80
2022-12-12T16:39:20.554Z,0.80
2022-12-12T16:41:50.171Z,0.70
2022-12-12T16:44:18.281Z,0.70
2022-12-12T16:46:46.422Z,1.00
2022-12-12T16:49:15.617Z,0.80
2022-12-12T16:51:43.985Z,0.80
2022-12-12T16:54:16.900Z,0.70
2022-12-12T16:56:50.537Z,0.70
2022-12-12T16:59:20.094Z,0.70
2022-12-12T17:01:48.119Z,0.70
2022-12-12T17:04:22.047Z,0.70
2022-12-12T17:06:51.073Z,0.70
2022-12-12T17:09:21.404Z,0.70
2022-12-12T17:11:49.633Z,0.70
2022-12-12T17:14:22.322Z,0.60
2022-12-12T17:16:50.683Z,0.60
2022-12-12T17:19:18.825Z,0.60
2022-12-12T17:21:46.946Z,0.60
2022-12-12T17:24:15.124Z,0.70
2022-12-12T17:26:43.202Z,0.60
2022-12-12T17:29:12.336Z,0.50
2022-12-12T17:31:41.920Z,0.60
2022-12-12T17:34:09.940Z,0.50
2022-12-12T17:36:37.970Z,0.40
2022-12-12T17:39:06.172Z,0.50
2022-12-12T17:41:34.214Z,0.60
2022-12-12T17:44:02.235Z,0.50
2022-12-12T17:46:30.266Z,0.50
2022-12-12T17:49:01.943Z,0.50
2022-12-12T17:51:30.182Z,0.60
2022-12-12T17:54:00.194Z,0.50
2022-12-12T17:56:28.350Z,0.60
2022-12-12T17:58:56.661Z,0.50
2022-12-12T18:01:28.396Z,0.50
2022-12-12T18:03:57.493Z,0.60
2022-12-12T18:06:28.005Z,0.60
2022-12-12T18:08:56.871Z,0.60
2022-12-12T18:11:27.443Z,0.40
2022-12-12T18:13:57.781Z,0.60
2022-12-12T18:16:26.299Z,0.50
2022-12-12T18:18:55.755Z,0.60
2022-12-12T18:24:16.504Z,0.50
2022-12-12T18:26:45.007Z,0.40
2022-12-12T18:29:14.598Z,0.50
2022-12-12T18:31:42.831Z,0.40
2022-12-12T18:34:10.984Z,0.50
2022-12-12T18:36:40.713Z,0.30
2022-12-12T18:39:09.083Z,0.30
2022-12-12T18:41:38.643Z,0.30
2022-12-12T18:44:08.079Z,0.20
2022-12-12T18:46:42.252Z,0.20
2022-12-12T18:49:13.711Z,0.40
2022-12-12T18:51:43.463Z,0.30
2022-12-12T18:54:15.374Z,0.30
2022-12-12T18:56:44.610Z,0.30
2022-12-12T18:59:14.820Z,0.30
2022-12-12T19:01:42.971Z,0.10
2022-12-12T19:04:14.288Z,0.10
2022-12-12T19:06:44.857Z,0.00
2022-12-12T19:09:15.343Z,0.10
2022-12-12T19:11:44.322Z,0.00
2022-12-12T19:14:14.875Z,0.10
2022-12-12T19:16:43.708Z,0.00
2022-12-12T19:19:12.411Z,0.00
2022-12-12T19:21:41.265Z,0.00
2022-12-12T19:24:12.799Z,-0.10
2022-12-12T19:26:42.339Z,-0.20
2022-12-12T19:29:13.034Z,-0.30
2022-12-12T19:31:41.099Z,-0.40
2022-12-12T19:34:11.721Z,-0.50
2022-12-12T19:36:40.263Z,-0.40
2022-12-12T19:39:11.479Z,-0.50
2022-12-12T19:41:39.514Z,-0.40
2022-12-12T19:44:08.972Z,-0.50
2022-12-12T19:46:37.107Z,-0.50
2022-12-12T19:49:08.615Z,-0.60
2022-12-12T19:51:39.292Z,-0.60
2022-12-12T19:54:10.789Z,-0.60
2022-12-12T19:56:40.932Z,-0.70
2022-12-12T19:59:09.741Z,-0.70
2022-12-12T20:01:38.939Z,-0.60
2022-12-12T20:04:08.635Z,-0.60
2022-12-12T20:06:42.147Z,-0.70
2022-12-12T20:09:12.492Z,-0.70
2022-12-12T20:11:41.334Z,-0.70
2022-12-12T20:14:13.080Z,-0.70
2022-12-12T20:16:41.179Z,-0.70
2022-12-12T20:19:09.279Z,-0.80
2022-12-12T20:24:26.768Z,-0.80
2022-12-12T20:26:55.541Z,-0.90
2022-12-12T20:29:23.781Z,-0.90
2022-12-12T20:31:52.524Z,-0.90
2022-12-12T20:34:24.406Z,-0.80
2022-12-12T20:36:55.115Z,-0.90
2022-12-12T20:39:25.108Z,-0.90
2022-12-12T20:41:56.608Z,-0.80
2022-12-12T20:44:25.660Z,-1.00
2022-12-12T20:46:54.272Z,-0.90
2022-12-12T20:49:24.570Z,-1.00
2022-12-12T20:51:56.000Z,-0.90
2022-12-12T20:54:25.023Z,-0.90
2022-12-12T20:56:54.828Z,-1.00
2022-12-12T20:59:23.670Z,-1.00
2022-12-12T21:01:52.081Z,-0.90
2022-12-12T21:04:20.235Z,-0.90
2022-12-12T21:06:49.893Z,-0.90
2022-12-12T21:09:23.765Z,-0.90
2022-12-12T21:11:55.504Z,-0.90
2022-12-12T21:14:23.595Z,-0.90
2022-12-12T21:16:51.643Z,-0.90
2022-12-12T21:19:20.916Z,-1.00
2022-12-12T21:21:48.946Z,-1.00
2022-12-12T21:24:18.092Z,-1.00
2022-12-12T21:26:47.404Z,-0.90
2022-12-12T21:29:17.350Z,-1.00
2022-12-12T21:31:51.097Z,-1.00
2022-12-12T21:34:20.321Z,-1.00
2022-12-12T21:36:51.770Z,-1.00
2022-12-12T21:39:20.229Z,-1.00
2022-12-12T21:41:48.303Z,-0.90
2022-12-12T21:44:17.712Z,-1.00
2022-12-12T21:46:45.744Z,-0.90
2022-12-12T21:49:30.944Z,-0.90
2022-12-12T21:52:01.184Z,-0.80
2022-12-12T21:54:30.340Z,-0.70
2022-12-12T21:56:59.589Z,-0.80
2022-12-12T21:59:29.442Z,-0.90
2022-12-12T22:01:59.580Z,-0.90
2022-12-12T22:04:28.267Z,-0.90
2022-12-12T22:06:57.133Z,-0.90
2022-12-12T22:09:26.438Z,-0.90
2022-12-12T22:12:03.851Z,-0.90
2022-12-12T22:14:35.407Z,-0.90
2022-12-12T22:17:04.292Z,-0.90
2022-12-12T22:19:32.544Z,-0.90
2022-12-12T22:22:00.615Z,-0.90
2022-12-12T22:24:28.663Z,-0.90
2022-12-12T22:26:56.718Z,-0.90
2022-12-12T22:29:24.736Z,-0.90
2022-12-12T22:31:54.249Z,-0.90
2022-12-12T22:34:24.300Z,-0.90
2022-12-12T22:36:52.960Z,-0.80
2022-12-12T22:39:24.796Z,-0.90
2022-12-12T22:41:52.952Z,-0.80
2022-12-12T22:44:23.209Z,-0.80
2022-12-12T22:46:54.148Z,-0.80
2022-12-12T22:49:25.755Z,-0.70
2022-12-12T22:51:55.080Z,-0.80
2022-12-12T22:54:23.388Z,-0.80
2022-12-12T22:56:51.548Z,-0.70
2022-12-12T22:59:19.579Z,-0.70
2022-12-12T23:01:47.576Z,-0.70
2022-12-12T23:04:17.029Z,-0.80
2022-12-12T23:06:45.427Z,-0.80
2022-12-12T23:09:15.593Z,-0.80
2022-12-12T23:11:44.822Z,-0.80
2022-12-12T23:14:15.385Z,-0.90
2022-12-12T23:16:43.669Z,-0.90
2022-12-12T23:19:12.725Z,-0.80
2022-12-12T23:21:42.306Z,-0.90
2022-12-12T23:24:10.737Z,-0.90
2022-12-12T23:26:39.046Z,-1.00
2022-12-12T23:29:09.414Z,-1.00
2022-12-12T23:31:39.037Z,-1.00
2022-12-12T23:34:14.642Z,-1.10
2022-12-12T23:36:44.197Z,-1.20
2022-12-12T23:39:13.607Z,-1.10
2022-12-12T23:41:42.257Z,-1.00
2022-12-12T23:44:13.244Z,-1.10
2022-12-12T23:46:41.507Z,-1.10
2022-12-12T23:49:15.051Z,-1.10
2022-12-12T23:51:46.609Z,-1.20
2022-12-12T23:54:17.220Z,-1.00
2022-12-12T23:56:45.825Z,-1.20
2022-12-12T23:59:17.513Z,-1.10
